x

Destruction Island, Wa (desw1) Weather Station

11:00 - Fri 23rd Jun 2017 All times are PDT. -7 hours from GMT.

  • Wind
    5mph, 6mph gusts
  • Aire Temp 57°f
  • Sea Pressure 1023.4mb
  • Destruction Island, Wa
  • Destruction Island, Wa

More Historic Weather Station data

Upgrade to MSW Pro to gain access to the past 30 days of data for over 8000 Wavebouys and Weather Stations around the globe.

Join Pro

Comparision Forecast

View Surf forecast
   
vie 06/23 11:00 5 6 mph 1023.4mb 57f
10:00 1 2 mph 1023.4mb 57f
9:00  -  0 mph 1023.6mb 57f
8:00  -  2 mph 1023.6mb 56f
7:00 2 2 mph 1023.5mb 53f
6:00 5 5 mph 1023.4mb 53f
5:00 5 5 mph 1023.3mb 53f
4:00 11 13 mph 1023.7mb 53f
3:00 10 11 mph 1023.7mb 53f
2:00 16 17 mph 1023.6mb 54f
1:00 14 14 mph 1023.8mb 54f
12:00 21 22 mph 1024.1mb 55f
jue 06/22 11:00 25 26 mph 1024.2mb 55f
10:00 26 28 mph 1024.1mb 55f
9:00 25 26 mph 1024.2mb 55f
8:00 29 31 mph 1024.2mb 56f
7:00 28 30 mph 1024.3mb 56f
6:00 25 29 mph 1024.4mb 57f
5:00 25 28 mph 1024.6mb 56f
4:00 22 24 mph 1025.2mb 57f
3:00 16 17 mph 1025.7mb 55f
2:00 15 18 mph 1026.3mb 57f
1:00 11 14 mph 1026.6mb 58f
12:00 3 5 mph 1026.6mb 56f
11:00 3 5 mph 1026.9mb 55f
10:00  -  0 mph 1027mb 55f
9:00  -  0 mph 1026.9mb 54f
8:00 2 3 mph 1027mb 53f
7:00 3 5 mph 1026.7mb 51f
6:00 3 5 mph 1026.4mb 50f
5:00 2 2 mph 1026.3mb 51f
4:00 3 3 mph 1026.5mb 51f
3:00 6 7 mph 1026.3mb 52f
2:00 11 11 mph 1026.6mb 53f
1:00 8 9 mph 1026.9mb 54f
12:00 8 10 mph 1026.8mb 54f
mié 06/21 11:00 11 13 mph 1026.9mb 54f
10:00 17 18 mph 1026.9mb 55f
9:00 20 22 mph 1026.5mb 55f
8:00 21 22 mph 1026.6mb 55f
7:00 25 28 mph 1026.8mb 56f
6:00 24 26 mph 1026.9mb 56f
5:00 25 26 mph 1027.4mb 56f
4:00 26 28 mph 1027.5mb 56f
3:00 24 26 mph 1027.6mb 56f
2:00 24 25 mph 1027.8mb 56f
1:00 20 22 mph 1028mb 56f
12:00 23 24 mph 1028.1mb 56f
11:00 22 24 mph 1028.1mb 55f
10:00 21 23 mph 1028.1mb 55f
9:00 20 23 mph 1027.6mb 55f
8:00 18 21 mph 1027mb 55f
7:00 20 23 mph 1027mb 54f
6:00 11 14 mph 1026.7mb 53f
5:00 11 13 mph 1026.6mb 53f
4:00 15 18 mph 1026.5mb 53f
3:00 14 16 mph 1026.2mb 54f
2:00 13 16 mph 1026mb 54f
1:00 13 14 mph 1026mb 54f
12:00 17 18 mph 1026.2mb 55f
mar 06/20 11:00 20 21 mph 1025.9mb 55f
10:00 24 26 mph 1025.8mb 55f
9:00 23 25 mph 1025.3mb 55f
8:00 24 26 mph 1025.2mb 56f
7:00 26 29 mph 1024.9mb 56f
6:00 24 25 mph 1024.8mb 56f
5:00 23 24 mph 1025mb 56f
4:00 21 24 mph 1024.8mb 56f
3:00 22 23 mph 1024.5mb 55f
2:00 23 24 mph 1024.1mb 56f
1:00 22 24 mph 1023.5mb 56f
12:00 23 25 mph 1022.8mb 55f
11:00 26 29 mph 1022mb 55f
10:00 25 28 mph 1021.2mb 55f
9:00 28 30 mph 1020.5mb 55f
8:00 13 15 mph 1020mb 57f
7:00 10 10 mph 1019.3mb 57f
6:00 7 8 mph 1018.7mb 57f
5:00 3 5 mph 1018.3mb 57f
4:00  -  1 mph 1018.2mb 57f
3:00 3 3 mph 1018.2mb 57f
2:00 5 6 mph 1018.1mb 56f
1:00 3 6 mph 1017.8mb 57f
12:00 8 9 mph 1017.9mb 58f
lun 06/19 11:00 9 9 mph 1017.7mb 58f
10:00 9 10 mph 1017.3mb 58f
9:00 5 6 mph 1016.7mb 58f
8:00 3 6 mph 1017.2mb 59f